sensor_id;sensor_type;location;lat;lon;timestamp;temperature;humidity
44509;DHT22;30214;52.246;14.408;2022-09-30T00:00:03;4.70;99.90
44509;DHT22;30214;52.246;14.408;2022-09-30T00:02:34;4.70;99.90
44509;DHT22;30214;52.246;14.408;2022-09-30T00:05:03;4.60;99.90
44509;DHT22;30214;52.246;14.408;2022-09-30T00:07:30;4.60;99.90
44509;DHT22;30214;52.246;14.408;2022-09-30T00:09:57;4.60;99.90
44509;DHT22;30214;52.246;14.408;2022-09-30T00:12:24;4.60;99.90
44509;DHT22;30214;52.246;14.408;2022-09-30T00:14:52;4.60;99.90
44509;DHT22;30214;52.246;14.408;2022-09-30T00:17:19;4.50;99.90
44509;DHT22;30214;52.246;14.408;2022-09-30T00:19:46;4.50;99.90
44509;DHT22;30214;52.246;14.408;2022-09-30T00:22:14;4.40;99.90
44509;DHT22;30214;52.246;14.408;2022-09-30T00:24:41;4.30;99.90
44509;DHT22;30214;52.246;14.408;2022-09-30T00:27:08;4.40;99.90
44509;DHT22;30214;52.246;14.408;2022-09-30T00:29:36;4.30;99.90
44509;DHT22;30214;52.246;14.408;2022-09-30T00:32:03;4.30;99.90
44509;DHT22;30214;52.246;14.408;2022-09-30T00:34:31;4.30;99.90
44509;DHT22;30214;52.246;14.408;2022-09-30T00:36:58;4.30;99.90
44509;DHT22;30214;52.246;14.408;2022-09-30T00:39:29;4.20;99.90
44509;DHT22;30214;52.246;14.408;2022-09-30T00:41:58;4.20;99.90
44509;DHT22;30214;52.246;14.408;2022-09-30T00:44:49;4.20;99.90
44509;DHT22;30214;52.246;14.408;2022-09-30T00:47:39;4.10;99.90
44509;DHT22;30214;52.246;14.408;2022-09-30T00:50:20;4.10;99.90
44509;DHT22;30214;52.246;14.408;2022-09-30T00:52:55;4.10;99.90
44509;DHT22;30214;52.246;14.408;2022-09-30T00:55:34;4.10;99.90
44509;DHT22;30214;52.246;14.408;2022-09-30T00:58:07;4.10;99.90
44509;DHT22;30214;52.246;14.408;2022-09-30T01:00:35;4.10;99.90
44509;DHT22;30214;52.246;14.408;2022-09-30T01:03:03;4.10;99.90
44509;DHT22;30214;52.246;14.408;2022-09-30T01:05:32;4.10;99.90
44509;DHT22;30214;52.246;14.408;2022-09-30T01:08:03;4.10;99.90
44509;DHT22;30214;52.246;14.408;2022-09-30T01:10:32;4.10;99.90
44509;DHT22;30214;52.246;14.408;2022-09-30T01:13:00;4.10;99.90
44509;DHT22;30214;52.246;14.408;2022-09-30T01:15:38;4.10;99.90
44509;DHT22;30214;52.246;14.408;2022-09-30T01:18:21;4.10;99.90
44509;DHT22;30214;52.246;14.408;2022-09-30T01:21:11;4.10;99.90
44509;DHT22;30214;52.246;14.408;2022-09-30T01:24:29;4.00;99.90
44509;DHT22;30214;52.246;14.408;2022-09-30T01:27:30;4.00;99.90
44509;DHT22;30214;52.246;14.408;2022-09-30T01:30:14;4.00;99.90
44509;DHT22;30214;52.246;14.408;2022-09-30T01:33:11;3.80;99.90
44509;DHT22;30214;52.246;14.408;2022-09-30T01:36:03;3.80;99.90
44509;DHT22;30214;52.246;14.408;2022-09-30T01:38:44;3.70;99.90
44509;DHT22;30214;52.246;14.408;2022-09-30T01:41:21;3.70;99.90
44509;DHT22;30214;52.246;14.408;2022-09-30T01:43:57;3.70;99.90
44509;DHT22;30214;52.246;14.408;2022-09-30T01:46:33;3.70;99.90
44509;DHT22;30214;52.246;14.408;2022-09-30T01:49:13;3.80;99.90
44509;DHT22;30214;52.246;14.408;2022-09-30T01:51:51;3.70;99.90
44509;DHT22;30214;52.246;14.408;2022-09-30T01:54:25;3.80;99.90
44509;DHT22;30214;52.246;14.408;2022-09-30T01:57:00;3.80;99.90
44509;DHT22;30214;52.246;14.408;2022-09-30T01:59:32;3.70;99.90
44509;DHT22;30214;52.246;14.408;2022-09-30T02:02:04;3.80;99.90
44509;DHT22;30214;52.246;14.408;2022-09-30T02:04:37;3.80;99.90
44509;DHT22;30214;52.246;14.408;2022-09-30T02:07:09;3.80;99.90
44509;DHT22;30214;52.246;14.408;2022-09-30T02:09:41;3.80;99.90
44509;DHT22;30214;52.246;14.408;2022-09-30T02:12:18;3.80;99.90
44509;DHT22;30214;52.246;14.408;2022-09-30T02:14:48;3.70;99.90
44509;DHT22;30214;52.246;14.408;2022-09-30T02:17:20;3.80;99.90
44509;DHT22;30214;52.246;14.408;2022-09-30T02:19:53;3.80;99.90
44509;DHT22;30214;52.246;14.408;2022-09-30T02:22:27;3.70;99.90
44509;DHT22;30214;52.246;14.408;2022-09-30T02:24:59;3.60;99.90
44509;DHT22;30214;52.246;14.408;2022-09-30T02:27:33;3.60;99.90
44509;DHT22;30214;52.246;14.408;2022-09-30T02:30:07;3.50;99.90
44509;DHT22;30214;52.246;14.408;2022-09-30T02:32:39;3.40;99.90
44509;DHT22;30214;52.246;14.408;2022-09-30T02:35:16;3.50;99.90
44509;DHT22;30214;52.246;14.408;2022-09-30T02:37:48;3.60;99.90
44509;DHT22;30214;52.246;14.408;2022-09-30T02:40:23;3.60;99.90
44509;DHT22;30214;52.246;14.408;2022-09-30T02:42:52;3.70;99.90
44509;DHT22;30214;52.246;14.408;2022-09-30T02:45:21;3.70;99.90
44509;DHT22;30214;52.246;14.408;2022-09-30T02:48:02;3.70;99.90
44509;DHT22;30214;52.246;14.408;2022-09-30T02:50:37;3.80;99.90
44509;DHT22;30214;52.246;14.408;2022-09-30T02:53:17;3.80;99.90
44509;DHT22;30214;52.246;14.408;2022-09-30T02:58:44;3.70;99.90
44509;DHT22;30214;52.246;14.408;2022-09-30T03:01:13;3.60;99.90
44509;DHT22;30214;52.246;14.408;2022-09-30T03:03:44;3.40;99.90
44509;DHT22;30214;52.246;14.408;2022-09-30T03:06:13;3.30;99.90
44509;DHT22;30214;52.246;14.408;2022-09-30T03:08:41;3.20;99.90
44509;DHT22;30214;52.246;14.408;2022-09-30T03:11:12;3.20;99.90
44509;DHT22;30214;52.246;14.408;2022-09-30T03:14:03;3.20;99.90
44509;DHT22;30214;52.246;14.408;2022-09-30T03:16:56;3.20;99.90
44509;DHT22;30214;52.246;14.408;2022-09-30T03:19:48;3.20;99.90
44509;DHT22;30214;52.246;14.408;2022-09-30T03:22:50;3.30;99.90
44509;DHT22;30214;52.246;14.408;2022-09-30T03:25:34;3.30;99.90
44509;DHT22;30214;52.246;14.408;2022-09-30T03:28:17;3.40;99.90
44509;DHT22;30214;52.246;14.408;2022-09-30T03:30:54;3.40;99.90
44509;DHT22;30214;52.246;14.408;2022-09-30T03:33:31;3.50;99.90
44509;DHT22;30214;52.246;14.408;2022-09-30T03:36:06;3.50;99.90
44509;DHT22;30214;52.246;14.408;2022-09-30T03:38:42;3.60;99.90
44509;DHT22;30214;52.246;14.408;2022-09-30T03:41:18;3.60;99.90
44509;DHT22;30214;52.246;14.408;2022-09-30T03:43:50;3.60;99.90
44509;DHT22;30214;52.246;14.408;2022-09-30T03:46:23;3.60;99.90
44509;DHT22;30214;52.246;14.408;2022-09-30T03:48:56;3.60;99.90
44509;DHT22;30214;52.246;14.408;2022-09-30T03:51:26;3.60;99.90
44509;DHT22;30214;52.246;14.408;2022-09-30T03:53:57;3.40;99.90
44509;DHT22;30214;52.246;14.408;2022-09-30T03:56:25;3.20;99.90
44509;DHT22;30214;52.246;14.408;2022-09-30T03:58:53;3.10;99.90
44509;DHT22;30214;52.246;14.408;2022-09-30T04:01:21;3.10;99.90
44509;DHT22;30214;52.246;14.408;2022-09-30T04:03:49;3.20;99.90
44509;DHT22;30214;52.246;14.408;2022-09-30T04:06:19;3.20;99.90
44509;DHT22;30214;52.246;14.408;2022-09-30T04:08:47;3.20;99.90
44509;DHT22;30214;52.246;14.408;2022-09-30T04:11:15;3.30;99.90
44509;DHT22;30214;52.246;14.408;2022-09-30T04:13:43;3.30;99.90
44509;DHT22;30214;52.246;14.408;2022-09-30T04:16:10;3.20;99.90
44509;DHT22;30214;52.246;14.408;2022-09-30T04:18:38;3.20;99.90
44509;DHT22;30214;52.246;14.408;2022-09-30T04:21:06;3.30;99.90
44509;DHT22;30214;52.246;14.408;2022-09-30T04:23:34;3.10;99.90
44509;DHT22;30214;52.246;14.408;2022-09-30T04:26:02;2.90;99.90
44509;DHT22;30214;52.246;14.408;2022-09-30T04:28:31;2.80;99.90
44509;DHT22;30214;52.246;14.408;2022-09-30T04:30:59;2.80;99.90
44509;DHT22;30214;52.246;14.408;2022-09-30T04:33:26;2.90;99.90
44509;DHT22;30214;52.246;14.408;2022-09-30T04:35:54;2.90;99.90
44509;DHT22;30214;52.246;14.408;2022-09-30T04:38:21;2.80;99.90
44509;DHT22;30214;52.246;14.408;2022-09-30T04:40:49;2.80;99.90
44509;DHT22;30214;52.246;14.408;2022-09-30T04:43:17;2.60;99.90
44509;DHT22;30214;52.246;14.408;2022-09-30T04:45:46;2.40;99.90
44509;DHT22;30214;52.246;14.408;2022-09-30T04:48:14;2.40;99.90
44509;DHT22;30214;52.246;14.408;2022-09-30T04:50:43;2.30;99.90
44509;DHT22;30214;52.246;14.408;2022-09-30T04:53:12;2.20;99.90
44509;DHT22;30214;52.246;14.408;2022-09-30T04:55:40;2.30;99.90
44509;DHT22;30214;52.246;14.408;2022-09-30T04:58:08;2.50;99.90
44509;DHT22;30214;52.246;14.408;2022-09-30T05:00:35;2.50;99.90
44509;DHT22;30214;52.246;14.408;2022-09-30T05:03:04;2.50;99.90
44509;DHT22;30214;52.246;14.408;2022-09-30T05:05:32;2.50;99.90
44509;DHT22;30214;52.246;14.408;2022-09-30T05:08:00;2.40;99.90
44509;DHT22;30214;52.246;14.408;2022-09-30T05:10:28;2.30;99.90
44509;DHT22;30214;52.246;14.408;2022-09-30T05:12:56;2.40;99.90
44509;DHT22;30214;52.246;14.408;2022-09-30T05:15:23;2.40;99.90
44509;DHT22;30214;52.246;14.408;2022-09-30T05:17:51;2.30;99.90
44509;DHT22;30214;52.246;14.408;2022-09-30T05:20:20;2.30;99.90
44509;DHT22;30214;52.246;14.408;2022-09-30T05:22:53;2.40;99.90
44509;DHT22;30214;52.246;14.408;2022-09-30T05:25:21;2.50;99.90
44509;DHT22;30214;52.246;14.408;2022-09-30T05:27:49;2.50;99.90
44509;DHT22;30214;52.246;14.408;2022-09-30T05:30:16;2.40;99.90
44509;DHT22;30214;52.246;14.408;2022-09-30T05:32:44;2.30;99.90
44509;DHT22;30214;52.246;14.408;2022-09-30T05:35:11;2.10;99.90
44509;DHT22;30214;52.246;14.408;2022-09-30T05:37:41;2.00;99.90
44509;DHT22;30214;52.246;14.408;2022-09-30T05:40:08;2.00;99.90
44509;DHT22;30214;52.246;14.408;2022-09-30T05:42:35;1.90;99.90
44509;DHT22;30214;52.246;14.408;2022-09-30T05:45:03;2.00;99.90
44509;DHT22;30214;52.246;14.408;2022-09-30T05:47:32;2.00;99.90
44509;DHT22;30214;52.246;14.408;2022-09-30T05:49:59;2.00;99.90
44509;DHT22;30214;52.246;14.408;2022-09-30T05:52:28;2.00;99.90
44509;DHT22;30214;52.246;14.408;2022-09-30T05:54:57;2.00;99.90
44509;DHT22;30214;52.246;14.408;2022-09-30T05:57:27;2.00;99.90
44509;DHT22;30214;52.246;14.408;2022-09-30T05:59:55;2.10;99.90
44509;DHT22;30214;52.246;14.408;2022-09-30T06:02:24;2.20;99.90
44509;DHT22;30214;52.246;14.408;2022-09-30T06:04:52;2.30;99.90
44509;DHT22;30214;52.246;14.408;2022-09-30T06:07:20;2.40;99.90
44509;DHT22;30214;52.246;14.408;2022-09-30T06:09:49;2.50;99.90
44509;DHT22;30214;52.246;14.408;2022-09-30T06:12:18;2.80;99.90
44509;DHT22;30214;52.246;14.408;2022-09-30T06:14:45;2.90;99.90
44509;DHT22;30214;52.246;14.408;2022-09-30T06:17:12;3.10;99.90
44509;DHT22;30214;52.246;14.408;2022-09-30T06:19:42;3.30;99.90
44509;DHT22;30214;52.246;14.408;2022-09-30T06:22:09;3.50;99.90
44509;DHT22;30214;52.246;14.408;2022-09-30T06:24:36;3.70;99.90
44509;DHT22;30214;52.246;14.408;2022-09-30T06:27:03;3.80;99.90
44509;DHT22;30214;52.246;14.408;2022-09-30T06:29:32;4.00;99.90
44509;DHT22;30214;52.246;14.408;2022-09-30T06:31:59;4.00;99.90
44509;DHT22;30214;52.246;14.408;2022-09-30T06:34:27;4.00;99.90
44509;DHT22;30214;52.246;14.408;2022-09-30T06:36:54;4.20;99.90
44509;DHT22;30214;52.246;14.408;2022-09-30T06:39:21;4.30;99.90
44509;DHT22;30214;52.246;14.408;2022-09-30T06:41:48;4.50;99.90
44509;DHT22;30214;52.246;14.408;2022-09-30T06:44:23;4.50;99.90
44509;DHT22;30214;52.246;14.408;2022-09-30T06:46:53;4.60;99.90
44509;DHT22;30214;52.246;14.408;2022-09-30T06:49:20;4.90;99.90
44509;DHT22;30214;52.246;14.408;2022-09-30T06:51:48;5.00;99.90
44509;DHT22;30214;52.246;14.408;2022-09-30T06:54:17;5.10;99.90
44509;DHT22;30214;52.246;14.408;2022-09-30T06:56:46;5.20;99.90
44509;DHT22;30214;52.246;14.408;2022-09-30T06:59:15;5.10;99.90
44509;DHT22;30214;52.246;14.408;2022-09-30T07:01:42;5.20;99.90
44509;DHT22;30214;52.246;14.408;2022-09-30T07:04:11;5.20;99.90
44509;DHT22;30214;52.246;14.408;2022-09-30T07:06:40;5.20;99.90
44509;DHT22;30214;52.246;14.408;2022-09-30T07:09:08;5.10;99.90
44509;DHT22;30214;52.246;14.408;2022-09-30T07:11:37;5.20;99.90
44509;DHT22;30214;52.246;14.408;2022-09-30T07:14:06;5.40;99.90
44509;DHT22;30214;52.246;14.408;2022-09-30T07:16:35;5.40;99.90
44509;DHT22;30214;52.246;14.408;2022-09-30T07:19:04;5.50;99.90
44509;DHT22;30214;52.246;14.408;2022-09-30T07:21:35;5.60;99.90
44509;DHT22;30214;52.246;14.408;2022-09-30T07:24:03;5.80;99.90
44509;DHT22;30214;52.246;14.408;2022-09-30T07:26:31;5.80;99.90
44509;DHT22;30214;52.246;14.408;2022-09-30T07:28:59;6.00;99.90
44509;DHT22;30214;52.246;14.408;2022-09-30T07:31:28;6.30;99.90
44509;DHT22;30214;52.246;14.408;2022-09-30T07:33:56;6.60;99.90
44509;DHT22;30214;52.246;14.408;2022-09-30T07:36:25;6.90;99.90
44509;DHT22;30214;52.246;14.408;2022-09-30T07:38:56;7.20;99.90
44509;DHT22;30214;52.246;14.408;2022-09-30T07:41:24;7.50;99.90
44509;DHT22;30214;52.246;14.408;2022-09-30T07:43:54;7.60;99.90
44509;DHT22;30214;52.246;14.408;2022-09-30T07:46:25;7.90;99.90
44509;DHT22;30214;52.246;14.408;2022-09-30T07:48:55;8.20;99.90
44509;DHT22;30214;52.246;14.408;2022-09-30T07:51:28;8.50;99.90
44509;DHT22;30214;52.246;14.408;2022-09-30T07:53:59;8.60;99.90
44509;DHT22;30214;52.246;14.408;2022-09-30T07:56:28;8.80;99.90
44509;DHT22;30214;52.246;14.408;2022-09-30T07:58:57;8.90;99.90
44509;DHT22;30214;52.246;14.408;2022-09-30T08:01:26;9.10;99.90
44509;DHT22;30214;52.246;14.408;2022-09-30T08:03:58;9.40;99.90
44509;DHT22;30214;52.246;14.408;2022-09-30T08:06:30;9.70;99.90
44509;DHT22;30214;52.246;14.408;2022-09-30T08:08:59;9.90;99.90
44509;DHT22;30214;52.246;14.408;2022-09-30T08:11:26;10.00;99.90
44509;DHT22;30214;52.246;14.408;2022-09-30T08:13:55;10.10;99.90
44509;DHT22;30214;52.246;14.408;2022-09-30T08:16:24;10.30;99.90
44509;DHT22;30214;52.246;14.408;2022-09-30T08:18:53;10.40;99.90
44509;DHT22;30214;52.246;14.408;2022-09-30T08:21:21;10.40;99.90
44509;DHT22;30214;52.246;14.408;2022-09-30T08:23:49;10.30;99.90
44509;DHT22;30214;52.246;14.408;2022-09-30T08:26:18;10.40;99.90
44509;DHT22;30214;52.246;14.408;2022-09-30T08:28:45;10.50;99.90
44509;DHT22;30214;52.246;14.408;2022-09-30T08:31:15;10.60;99.90
44509;DHT22;30214;52.246;14.408;2022-09-30T08:33:43;10.70;99.90
44509;DHT22;30214;52.246;14.408;2022-09-30T08:36:12;10.90;99.90
44509;DHT22;30214;52.246;14.408;2022-09-30T08:38:40;11.10;99.90
44509;DHT22;30214;52.246;14.408;2022-09-30T08:41:27;11.30;99.90
44509;DHT22;30214;52.246;14.408;2022-09-30T08:44:08;11.50;99.90
44509;DHT22;30214;52.246;14.408;2022-09-30T08:46:44;11.60;99.90
44509;DHT22;30214;52.246;14.408;2022-09-30T08:49:28;11.70;99.90
44509;DHT22;30214;52.246;14.408;2022-09-30T08:52:04;11.90;99.90
44509;DHT22;30214;52.246;14.408;2022-09-30T08:54:40;11.90;99.90
44509;DHT22;30214;52.246;14.408;2022-09-30T08:57:13;11.90;99.90
44509;DHT22;30214;52.246;14.408;2022-09-30T08:59:43;12.00;99.90
44509;DHT22;30214;52.246;14.408;2022-09-30T09:02:17;12.20;99.90
44509;DHT22;30214;52.246;14.408;2022-09-30T09:04:49;12.30;99.90
44509;DHT22;30214;52.246;14.408;2022-09-30T09:07:28;12.40;99.90
44509;DHT22;30214;52.246;14.408;2022-09-30T09:10:11;12.60;99.90
44509;DHT22;30214;52.246;14.408;2022-09-30T09:12:55;12.80;99.90
44509;DHT22;30214;52.246;14.408;2022-09-30T09:15:44;13.00;99.90
44509;DHT22;30214;52.246;14.408;2022-09-30T09:18:34;13.10;99.90
44509;DHT22;30214;52.246;14.408;2022-09-30T09:21:21;13.20;99.90
44509;DHT22;30214;52.246;14.408;2022-09-30T09:23:50;13.30;99.90
44509;DHT22;30214;52.246;14.408;2022-09-30T09:26:21;13.40;99.90
44509;DHT22;30214;52.246;14.408;2022-09-30T09:29:02;13.40;99.90
44509;DHT22;30214;52.246;14.408;2022-09-30T09:31:35;13.30;99.90
44509;DHT22;30214;52.246;14.408;2022-09-30T09:34:08;13.30;99.90
44509;DHT22;30214;52.246;14.408;2022-09-30T09:36:56;13.50;99.90
44509;DHT22;30214;52.246;14.408;2022-09-30T09:39:44;13.70;99.90
44509;DHT22;30214;52.246;14.408;2022-09-30T09:42:44;13.90;99.90
44509;DHT22;30214;52.246;14.408;2022-09-30T09:45:27;14.10;99.90
44509;DHT22;30214;52.246;14.408;2022-09-30T09:47:57;14.30;99.90
44509;DHT22;30214;52.246;14.408;2022-09-30T09:50:34;14.40;99.90
44509;DHT22;30214;52.246;14.408;2022-09-30T09:53:32;14.50;99.90
44509;DHT22;30214;52.246;14.408;2022-09-30T09:56:12;14.40;99.90
44509;DHT22;30214;52.246;14.408;2022-09-30T09:59:08;14.40;99.90
44509;DHT22;30214;52.246;14.408;2022-09-30T10:01:40;14.60;99.90
44509;DHT22;30214;52.246;14.408;2022-09-30T10:04:14;14.70;99.90
44509;DHT22;30214;52.246;14.408;2022-09-30T10:06:55;14.80;99.90
44509;DHT22;30214;52.246;14.408;2022-09-30T10:09:30;14.90;99.90
44509;DHT22;30214;52.246;14.408;2022-09-30T10:12:27;15.10;99.90
44509;DHT22;30214;52.246;14.408;2022-09-30T10:14:59;15.20;99.90
44509;DHT22;30214;52.246;14.408;2022-09-30T10:17:32;15.40;99.90
44509;DHT22;30214;52.246;14.408;2022-09-30T10:20:04;15.50;99.90
44509;DHT22;30214;52.246;14.408;2022-09-30T10:22:34;15.60;99.30
44509;DHT22;30214;52.246;14.408;2022-09-30T10:25:16;15.70;99.50
44509;DHT22;30214;52.246;14.408;2022-09-30T10:27:55;15.70;99.20
44509;DHT22;30214;52.246;14.408;2022-09-30T10:30:42;15.80;99.90
44509;DHT22;30214;52.246;14.408;2022-09-30T10:33:18;15.70;99.90
44509;DHT22;30214;52.246;14.408;2022-09-30T10:35:53;15.70;98.50
44509;DHT22;30214;52.246;14.408;2022-09-30T10:38:24;15.80;98.50
44509;DHT22;30214;52.246;14.408;2022-09-30T10:40:55;15.80;96.30
44509;DHT22;30214;52.246;14.408;2022-09-30T10:43:25;16.00;98.00
44509;DHT22;30214;52.246;14.408;2022-09-30T10:45:54;16.00;97.10
44509;DHT22;30214;52.246;14.408;2022-09-30T10:48:26;16.10;96.60
44509;DHT22;30214;52.246;14.408;2022-09-30T10:50:56;16.30;97.30
44509;DHT22;30214;52.246;14.408;2022-09-30T10:53:26;16.40;93.40
44509;DHT22;30214;52.246;14.408;2022-09-30T10:55:55;16.30;94.80
44509;DHT22;30214;52.246;14.408;2022-09-30T10:58:29;16.40;94.00
44509;DHT22;30214;52.246;14.408;2022-09-30T11:01:11;16.40;93.50
44509;DHT22;30214;52.246;14.408;2022-09-30T11:03:51;16.40;93.70
44509;DHT22;30214;52.246;14.408;2022-09-30T11:06:23;16.40;90.70
44509;DHT22;30214;52.246;14.408;2022-09-30T11:08:54;16.40;91.50
44509;DHT22;30214;52.246;14.408;2022-09-30T11:11:25;16.30;87.50
44509;DHT22;30214;52.246;14.408;2022-09-30T11:13:58;16.40;90.40
44509;DHT22;30214;52.246;14.408;2022-09-30T11:16:32;16.60;90.00
44509;DHT22;30214;52.246;14.408;2022-09-30T11:19:09;16.60;90.70
44509;DHT22;30214;52.246;14.408;2022-09-30T11:21:44;16.50;90.80
44509;DHT22;30214;52.246;14.408;2022-09-30T11:24:20;16.50;92.20
44509;DHT22;30214;52.246;14.408;2022-09-30T11:26:58;16.50;91.90
44509;DHT22;30214;52.246;14.408;2022-09-30T11:29:53;16.60;90.30
44509;DHT22;30214;52.246;14.408;2022-09-30T11:32:53;16.70;86.30
44509;DHT22;30214;52.246;14.408;2022-09-30T11:35:45;16.80;83.90
44509;DHT22;30214;52.246;14.408;2022-09-30T11:38:32;16.80;88.40
44509;DHT22;30214;52.246;14.408;2022-09-30T11:41:09;16.80;87.50
44509;DHT22;30214;52.246;14.408;2022-09-30T11:43:45;16.80;91.00
44509;DHT22;30214;52.246;14.408;2022-09-30T11:46:32;16.80;90.10
44509;DHT22;30214;52.246;14.408;2022-09-30T11:49:14;16.70;90.60
44509;DHT22;30214;52.246;14.408;2022-09-30T11:51:56;16.60;90.30
44509;DHT22;30214;52.246;14.408;2022-09-30T11:54:38;16.70;91.90
44509;DHT22;30214;52.246;14.408;2022-09-30T11:57:16;16.70;90.60
44509;DHT22;30214;52.246;14.408;2022-09-30T11:59:50;16.70;90.60
44509;DHT22;30214;52.246;14.408;2022-09-30T12:02:28;16.60;90.70
44509;DHT22;30214;52.246;14.408;2022-09-30T12:05:02;16.60;93.10
44509;DHT22;30214;52.246;14.408;2022-09-30T12:07:39;16.50;91.70
44509;DHT22;30214;52.246;14.408;2022-09-30T12:10:17;16.50;92.10
44509;DHT22;30214;52.246;14.408;2022-09-30T12:12:51;16.50;90.30
44509;DHT22;30214;52.246;14.408;2022-09-30T12:15:21;16.60;91.70
44509;DHT22;30214;52.246;14.408;2022-09-30T12:17:55;16.70;91.30
44509;DHT22;30214;52.246;14.408;2022-09-30T12:20:30;16.80;90.00
44509;DHT22;30214;52.246;14.408;2022-09-30T12:23:13;17.00;87.70
44509;DHT22;30214;52.246;14.408;2022-09-30T12:25:48;17.10;87.30
44509;DHT22;30214;52.246;14.408;2022-09-30T12:28:25;17.20;85.90
44509;DHT22;30214;52.246;14.408;2022-09-30T12:31:29;17.30;85.50
44509;DHT22;30214;52.246;14.408;2022-09-30T12:34:26;17.20;85.90
44509;DHT22;30214;52.246;14.408;2022-09-30T12:37:13;17.20;84.70
44509;DHT22;30214;52.246;14.408;2022-09-30T12:43:11;17.00;86.40
44509;DHT22;30214;52.246;14.408;2022-09-30T12:46:16;16.90;85.80
44509;DHT22;30214;52.246;14.408;2022-09-30T12:48:49;16.80;85.00
44509;DHT22;30214;52.246;14.408;2022-09-30T12:51:25;16.80;87.70
44509;DHT22;30214;52.246;14.408;2022-09-30T12:53:59;16.80;91.20
44509;DHT22;30214;52.246;14.408;2022-09-30T12:56:31;16.80;90.80
44509;DHT22;30214;52.246;14.408;2022-09-30T12:59:02;16.90;90.00
44509;DHT22;30214;52.246;14.408;2022-09-30T13:01:30;16.90;88.90
44509;DHT22;30214;52.246;14.408;2022-09-30T13:07:17;17.00;88.50
44509;DHT22;30214;52.246;14.408;2022-09-30T13:10:25;17.10;88.60
44509;DHT22;30214;52.246;14.408;2022-09-30T13:13:18;17.10;87.30
44509;DHT22;30214;52.246;14.408;2022-09-30T13:15:49;17.00;83.50
44509;DHT22;30214;52.246;14.408;2022-09-30T13:21:24;17.00;84.70
44509;DHT22;30214;52.246;14.408;2022-09-30T13:23:52;17.00;87.30
44509;DHT22;30214;52.246;14.408;2022-09-30T13:26:40;17.00;87.30
44509;DHT22;30214;52.246;14.408;2022-09-30T13:29:35;16.90;89.70
44509;DHT22;30214;52.246;14.408;2022-09-30T13:32:05;16.80;88.70
44509;DHT22;30214;52.246;14.408;2022-09-30T13:34:51;16.80;90.00
44509;DHT22;30214;52.246;14.408;2022-09-30T13:37:35;16.70;91.50
44509;DHT22;30214;52.246;14.408;2022-09-30T13:40:11;16.70;92.00
44509;DHT22;30214;52.246;14.408;2022-09-30T13:42:49;16.70;91.80
44509;DHT22;30214;52.246;14.408;2022-09-30T13:45:26;16.70;92.10
44509;DHT22;30214;52.246;14.408;2022-09-30T13:48:06;16.80;89.20
44509;DHT22;30214;52.246;14.408;2022-09-30T13:50:42;16.90;90.80
44509;DHT22;30214;52.246;14.408;2022-09-30T13:53:25;16.80;90.80
44509;DHT22;30214;52.246;14.408;2022-09-30T13:55:55;16.90;90.20
44509;DHT22;30214;52.246;14.408;2022-09-30T13:58:49;16.90;92.00
44509;DHT22;30214;52.246;14.408;2022-09-30T14:05:36;17.00;90.60
44509;DHT22;30214;52.246;14.408;2022-09-30T14:08:46;16.90;90.30
44509;DHT22;30214;52.246;14.408;2022-09-30T14:11:45;16.80;91.50
44509;DHT22;30214;52.246;14.408;2022-09-30T14:14:34;16.60;92.40
44509;DHT22;30214;52.246;14.408;2022-09-30T14:17:23;16.60;93.80
44509;DHT22;30214;52.246;14.408;2022-09-30T14:20:17;16.70;93.30
44509;DHT22;30214;52.246;14.408;2022-09-30T14:22:51;16.80;92.00
44509;DHT22;30214;52.246;14.408;2022-09-30T14:25:19;16.80;91.40
44509;DHT22;30214;52.246;14.408;2022-09-30T14:27:53;16.80;90.50
44509;DHT22;30214;52.246;14.408;2022-09-30T14:30:30;16.90;90.30
44509;DHT22;30214;52.246;14.408;2022-09-30T14:33:02;16.90;89.50
44509;DHT22;30214;52.246;14.408;2022-09-30T14:35:36;16.80;90.30
44509;DHT22;30214;52.246;14.408;2022-09-30T14:38:13;16.70;90.10
44509;DHT22;30214;52.246;14.408;2022-09-30T14:40:50;16.70;90.40
44509;DHT22;30214;52.246;14.408;2022-09-30T14:43:21;16.70;91.30
44509;DHT22;30214;52.246;14.408;2022-09-30T14:45:52;16.60;90.60
44509;DHT22;30214;52.246;14.408;2022-09-30T14:48:24;16.70;91.20
44509;DHT22;30214;52.246;14.408;2022-09-30T14:50:57;16.70;90.90
44509;DHT22;30214;52.246;14.408;2022-09-30T14:53:29;16.70;91.80
44509;DHT22;30214;52.246;14.408;2022-09-30T14:55:58;16.70;89.10
44509;DHT22;30214;52.246;14.408;2022-09-30T14:58:27;16.70;90.30
44509;DHT22;30214;52.246;14.408;2022-09-30T15:01:04;16.70;92.00
44509;DHT22;30214;52.246;14.408;2022-09-30T15:03:35;16.70;91.80
44509;DHT22;30214;52.246;14.408;2022-09-30T15:06:04;16.70;90.00
44509;DHT22;30214;52.246;14.408;2022-09-30T15:08:34;16.70;90.00
44509;DHT22;30214;52.246;14.408;2022-09-30T15:11:02;16.60;90.30
44509;DHT22;30214;52.246;14.408;2022-09-30T15:13:30;16.40;90.30
44509;DHT22;30214;52.246;14.408;2022-09-30T15:15:57;16.40;87.40
44509;DHT22;30214;52.246;14.408;2022-09-30T15:18:32;16.40;90.60
44509;DHT22;30214;52.246;14.408;2022-09-30T15:21:07;16.40;90.10
44509;DHT22;30214;52.246;14.408;2022-09-30T15:23:41;16.30;92.20
44509;DHT22;30214;52.246;14.408;2022-09-30T15:26:11;16.20;92.00
44509;DHT22;30214;52.246;14.408;2022-09-30T15:28:38;16.20;93.30
44509;DHT22;30214;52.246;14.408;2022-09-30T15:31:12;16.20;96.00
44509;DHT22;30214;52.246;14.408;2022-09-30T15:33:44;16.10;99.90
44509;DHT22;30214;52.246;14.408;2022-09-30T15:36:14;16.10;99.60
44509;DHT22;30214;52.246;14.408;2022-09-30T15:38:48;16.10;99.90
44509;DHT22;30214;52.246;14.408;2022-09-30T15:41:16;16.10;99.90
44509;DHT22;30214;52.246;14.408;2022-09-30T15:43:45;16.00;99.90
44509;DHT22;30214;52.246;14.408;2022-09-30T15:46:24;15.80;99.90
44509;DHT22;30214;52.246;14.408;2022-09-30T15:48:56;15.70;99.90
44509;DHT22;30214;52.246;14.408;2022-09-30T15:51:31;15.60;99.90
44509;DHT22;30214;52.246;14.408;2022-09-30T15:54:25;15.40;99.90
44509;DHT22;30214;52.246;14.408;2022-09-30T15:56:59;15.20;99.90
44509;DHT22;30214;52.246;14.408;2022-09-30T15:59:56;15.10;99.90
44509;DHT22;30214;52.246;14.408;2022-09-30T16:02:26;15.00;99.90
44509;DHT22;30214;52.246;14.408;2022-09-30T16:04:54;15.00;99.90
44509;DHT22;30214;52.246;14.408;2022-09-30T16:07:22;15.00;99.90
44509;DHT22;30214;52.246;14.408;2022-09-30T16:09:55;15.00;99.90
44509;DHT22;30214;52.246;14.408;2022-09-30T16:12:26;14.90;99.90
44509;DHT22;30214;52.246;14.408;2022-09-30T16:14:58;14.80;99.90
44509;DHT22;30214;52.246;14.408;2022-09-30T16:17:29;14.70;99.90
44509;DHT22;30214;52.246;14.408;2022-09-30T16:19:59;14.70;99.90
44509;DHT22;30214;52.246;14.408;2022-09-30T16:22:50;14.60;99.90